Time;durP1;ratioP1;P1;durP2;ratioP2;P2;SDS_P1;SDS_P2;PMS_P1;PMS_P2;Temp;Humidity;BMP_temperature;BMP_pressure;BME280_temperature;BME280_humidity;BME280_pressure;Samples;Min_cycle;Max_cycle;Signal;HPM_P1;HPM_P2
2021/03/16 00:01:16;;;;;;;1.40;1.30;;;;;;;4.97;58.82;92841.72;5011669;28;20222;-69
2021/03/16 00:03:42;;;;;;;0.90;0.90;;;;;;;5.24;58.83;92829.22;5011845;28;20177;-69
2021/03/16 00:06:07;;;;;;;1.17;1.17;;;;;;;5.19;58.37;92839.34;5010311;28;20644;-69
2021/03/16 00:08:33;;;;;;;1.10;1.10;;;;;;;5.27;58.08;92828.47;5010615;28;20296;-69
2021/03/16 00:10:58;;;;;;;1.10;1.10;;;;;;;5.12;58.97;92841.91;5014141;28;20738;-69
2021/03/16 00:13:24;;;;;;;1.50;1.40;;;;;;;4.82;58.86;92837.38;5015802;28;20180;-68
2021/03/16 00:15:49;;;;;;;1.10;1.00;;;;;;;4.93;59.21;92834.88;5015464;28;20193;-69
2021/03/16 00:18:15;;;;;;;1.07;1.00;;;;;;;5.16;58.99;92838.19;5015788;28;20239;-69
2021/03/16 00:20:42;;;;;;;1.10;1.07;;;;;;;4.80;58.90;92841.50;5015420;28;20169;-69
2021/03/16 00:23:08;;;;;;;1.05;1.05;;;;;;;4.75;60.28;92822.19;5014505;28;20172;-69
2021/03/16 00:25:33;;;;;;;1.30;1.20;;;;;;;4.76;59.77;92841.44;5015550;28;20187;-69
2021/03/16 00:27:59;;;;;;;1.13;1.13;;;;;;;5.13;59.44;92846.06;5015295;28;20189;-69
2021/03/16 00:30:25;;;;;;;1.43;1.27;;;;;;;5.05;59.97;92845.25;5015441;28;20170;-69
2021/03/16 00:32:50;;;;;;;1.13;1.13;;;;;;;5.04;59.05;92846.34;5015130;28;20169;-69
2021/03/16 00:35:15;;;;;;;1.40;1.40;;;;;;;4.87;58.95;92842.34;5015513;28;20223;-69
2021/03/16 00:37:41;;;;;;;1.63;1.23;;;;;;;4.91;58.99;92835.22;5015186;28;20173;-69
2021/03/16 00:40:07;;;;;;;1.20;1.10;;;;;;;4.93;58.53;92832.22;5015354;28;20591;-69
2021/03/16 00:42:33;;;;;;;1.02;1.02;;;;;;;4.97;58.87;92840.97;5015124;28;20184;-69
2021/03/16 00:44:58;;;;;;;1.30;1.20;;;;;;;4.85;58.69;92833.25;5015190;28;20558;-69
2021/03/16 00:47:24;;;;;;;1.20;1.17;;;;;;;4.91;58.93;92829.19;5014848;28;20239;-69
2021/03/16 00:49:49;;;;;;;1.20;1.10;;;;;;;5.10;58.55;92823.72;5015204;28;20574;-69
2021/03/16 00:52:15;;;;;;;1.20;1.10;;;;;;;5.04;58.28;92843.69;5015003;28;20190;-70
2021/03/16 00:54:40;;;;;;;1.10;1.10;;;;;;;4.66;59.09;92826.22;5014864;28;20181;-69
2021/03/16 00:57:06;;;;;;;1.40;1.30;;;;;;;4.77;60.03;92843.00;5014989;28;20243;-70
2021/03/16 00:59:31;;;;;;;1.20;1.10;;;;;;;4.78;60.03;92836.56;5014767;28;20607;-70
2021/03/16 01:01:57;;;;;;;1.97;1.30;;;;;;;4.46;60.98;92831.59;5014922;28;20169;-69
2021/03/16 01:04:22;;;;;;;1.30;1.27;;;;;;;4.77;60.80;92829.78;5014585;28;20184;-69
2021/03/16 01:06:48;;;;;;;1.23;1.20;;;;;;;4.85;61.56;92830.63;5014821;28;20204;-70
2021/03/16 01:09:13;;;;;;;1.13;1.13;;;;;;;4.95;62.09;92822.81;5014596;28;20291;-69
2021/03/16 01:11:39;;;;;;;1.53;1.30;;;;;;;4.95;60.98;92836.03;5014796;28;20212;-71
2021/03/16 01:14:06;;;;;;;2.17;1.33;;;;;;;4.88;62.15;92825.38;5014831;28;20660;-69
2021/03/16 01:16:31;;;;;;;1.42;1.33;;;;;;;4.92;62.75;92825.41;5014654;28;20181;-70
2021/03/16 01:18:57;;;;;;;1.03;1.00;;;;;;;5.11;62.52;92833.22;5014454;28;20180;-71
2021/03/16 01:21:22;;;;;;;1.17;1.10;;;;;;;4.91;63.05;92829.19;5013406;28;20165;-69
2021/03/16 01:23:48;;;;;;;1.20;1.20;;;;;;;4.94;63.60;92826.59;5014434;28;20180;-69
2021/03/16 01:26:13;;;;;;;1.10;1.10;;;;;;;4.77;63.05;92813.91;5014246;28;20169;-72
2021/03/16 01:28:38;;;;;;;0.90;0.90;;;;;;;4.47;63.80;92825.19;5014201;28;20236;-73
2021/03/16 01:31:04;;;;;;;1.30;1.20;;;;;;;4.49;64.41;92822.22;5014133;28;20232;-69
2021/03/16 01:33:29;;;;;;;1.10;1.10;;;;;;;4.46;65.03;92809.69;5014240;28;20184;-70
2021/03/16 01:35:55;;;;;;;1.20;1.10;;;;;;;4.44;64.38;92807.41;5014136;28;20169;-69
2021/03/16 01:38:20;;;;;;;1.30;1.20;;;;;;;4.51;64.25;92804.88;5014311;28;20187;-69
2021/03/16 01:40:46;;;;;;;1.50;1.40;;;;;;;4.55;63.68;92809.47;5014247;28;20173;-72
2021/03/16 01:43:13;;;;;;;1.50;1.20;;;;;;;4.83;63.21;92811.72;5013982;28;20307;-69
2021/03/16 01:45:39;;;;;;;1.55;1.45;;;;;;;4.71;64.31;92804.75;5014261;28;20199;-72
2021/03/16 01:48:06;;;;;;;1.23;1.23;;;;;;;4.75;64.34;92816.13;5013856;28;20200;-73
2021/03/16 01:50:31;;;;;;;1.15;1.08;;;;;;;4.71;64.58;92808.16;5013868;28;20185;-69
2021/03/16 01:52:57;;;;;;;1.60;1.50;;;;;;;4.62;64.61;92806.91;5012425;28;20278;-70
2021/03/16 01:55:23;;;;;;;1.40;1.30;;;;;;;4.40;65.07;92811.88;5012890;28;20188;-69
2021/03/16 01:57:48;;;;;;;1.83;1.53;;;;;;;4.45;65.56;92813.47;5012030;28;20563;-69
2021/03/16 02:00:14;;;;;;;1.37;1.27;;;;;;;4.70;64.90;92814.56;5013811;28;20276;-69
2021/03/16 02:02:39;;;;;;;1.70;1.40;;;;;;;4.86;64.95;92811.75;5012529;28;20208;-69
2021/03/16 02:05:09;;;;;;;1.30;1.20;;;;;;;4.84;65.11;92810.59;5013644;28;20204;-70
2021/03/16 02:07:39;;;;;;;1.17;1.10;;;;;;;4.86;64.77;92806.44;5011713;28;20669;-72
2021/03/16 02:10:13;;;;;;;1.10;1.10;;;;;;;4.75;65.12;92808.19;4996584;28;20547;-72
2021/03/16 02:12:59;;;;;;;1.20;1.17;;;;;;;4.64;64.94;92802.00;4996415;28;20170;-71
2021/03/16 02:15:28;;;;;;;1.77;1.67;;;;;;;4.51;65.65;92815.44;4997645;28;20177;-71
2021/03/16 02:17:54;;;;;;;1.35;1.25;;;;;;;4.36;65.50;92810.31;5012054;28;20170;-73
2021/03/16 02:20:41;;;;;;;2.08;1.10;;;;;;;4.75;66.54;92805.56;4996068;28;20185;-70
2021/03/16 02:23:07;;;;;;;1.40;1.30;;;;;;;4.75;65.07;92805.56;5013314;28;20238;-69
2021/03/16 02:25:35;;;;;;;1.23;1.13;;;;;;;4.86;64.75;92806.44;5012275;28;20177;-69
2021/03/16 02:28:15;;;;;;;1.25;1.15;;;;;;;4.75;64.89;92806.31;5013068;28;20194;-71
2021/03/16 02:30:41;;;;;;;1.67;1.33;;;;;;;4.78;64.35;92810.13;5013200;28;20173;-69
2021/03/16 02:33:09;;;;;;;1.50;1.40;;;;;;;4.63;64.59;92803.13;5011700;28;20199;-69
2021/03/16 02:35:35;;;;;;;1.75;1.50;;;;;;;4.51;65.10;92806.75;4996073;28;20567;-73
2021/03/16 02:38:00;;;;;;;1.23;1.13;;;;;;;4.50;65.90;92806.00;4995461;28;20219;-73
2021/03/16 02:40:26;;;;;;;1.40;1.30;;;;;;;4.41;64.41;92812.66;4995674;28;20196;-70
2021/03/16 02:42:51;;;;;;;1.50;1.40;;;;;;;4.28;65.98;92812.09;4995122;28;20267;-72
2021/03/16 02:45:17;;;;;;;1.17;1.00;;;;;;;4.44;66.31;92804.78;5012954;28;20199;-70
2021/03/16 02:47:44;;;;;;;1.30;1.20;;;;;;;4.16;66.34;92797.22;5012913;28;20718;-72
2021/03/16 02:50:10;;;;;;;1.83;1.40;;;;;;;4.24;66.37;92800.69;4995433;28;20660;-73
2021/03/16 02:52:36;;;;;;;1.63;1.20;;;;;;;3.93;66.20;92778.75;4995319;28;20308;-70
2021/03/16 02:55:02;;;;;;;2.03;1.53;;;;;;;3.77;66.03;92798.47;5011447;28;20257;-70
2021/03/16 02:57:28;;;;;;;1.52;1.33;;;;;;;4.07;65.19;92807.25;5012711;28;20173;-72
2021/03/16 02:59:54;;;;;;;1.40;1.30;;;;;;;4.21;65.00;92804.84;4994963;28;20183;-72
2021/03/16 03:02:19;;;;;;;1.47;1.13;;;;;;;4.19;64.32;92799.13;5011489;28;20165;-69
2021/03/16 03:04:45;;;;;;;1.40;1.37;;;;;;;4.50;63.78;92798.06;5012342;28;20169;-71
2021/03/16 03:07:11;;;;;;;1.50;1.40;;;;;;;4.25;62.70;92818.06;5012576;28;20176;-71
2021/03/16 03:09:37;;;;;;;1.10;1.10;;;;;;;4.34;62.75;92810.66;5011076;28;20283;-70
2021/03/16 03:12:05;;;;;;;1.30;1.10;;;;;;;4.48;62.64;92808.22;5011316;28;20231;-70
2021/03/16 03:14:32;;;;;;;1.38;1.10;;;;;;;4.60;62.83;92806.47;5012283;28;20644;-71
2021/03/16 03:16:58;;;;;;;1.38;1.25;;;;;;;4.08;62.78;92811.41;5011010;28;20660;-70
2021/03/16 03:19:23;;;;;;;1.33;1.23;;;;;;;4.30;64.44;92817.00;5012656;28;20219;-70
2021/03/16 03:21:52;;;;;;;1.00;1.00;;;;;;;4.52;63.83;92816.19;5012196;28;20191;-72
2021/03/16 03:24:24;;;;;;;1.25;1.23;;;;;;;4.21;63.88;92814.63;4995168;28;20169;-70
2021/03/16 03:27:01;;;;;;;2.47;1.00;;;;;;;4.39;64.47;92815.66;5010980;28;20561;-69
2021/03/16 03:29:27;;;;;;;1.25;1.13;;;;;;;4.57;64.89;92828.34;4994785;28;20204;-70
2021/03/16 03:31:52;;;;;;;1.47;1.37;;;;;;;4.66;64.56;92819.06;4994511;28;20180;-69
2021/03/16 03:34:18;;;;;;;1.00;1.00;;;;;;;4.59;64.57;92818.19;4994665;28;20165;-70
2021/03/16 03:36:43;;;;;;;0.90;0.90;;;;;;;4.36;65.50;92820.88;5010845;28;20177;-70
2021/03/16 03:39:10;;;;;;;1.53;1.10;;;;;;;4.12;66.14;92841.28;5010940;28;20753;-70
2021/03/16 03:41:35;;;;;;;1.27;1.17;;;;;;;4.24;66.97;92835.81;5010679;28;20578;-71
2021/03/16 03:44:03;;;;;;;1.37;1.27;;;;;;;4.38;67.15;92829.22;5010696;28;20177;-71
2021/03/16 03:46:30;;;;;;;1.23;1.20;;;;;;;4.11;67.38;92839.75;5011596;28;20252;-71
2021/03/16 03:48:56;;;;;;;1.30;1.10;;;;;;;4.23;67.40;92830.88;5010790;28;20251;-72
2021/03/16 03:51:22;;;;;;;1.20;1.10;;;;;;;3.99;68.10;92837.31;4994470;28;20260;-71
2021/03/16 03:53:48;;;;;;;1.33;1.20;;;;;;;4.03;68.60;92842.63;4994099;28;20225;-70
2021/03/16 03:56:15;;;;;;;1.57;1.47;;;;;;;3.86;69.17;92828.78;5010776;28;20707;-72
2021/03/16 03:58:40;;;;;;;1.30;1.20;;;;;;;3.82;69.68;92838.53;4994186;28;20184;-69
2021/03/16 04:01:06;;;;;;;1.60;1.10;;;;;;;3.56;70.06;92836.56;5011838;28;20561;-70
2021/03/16 04:03:32;;;;;;;1.30;1.20;;;;;;;3.72;70.76;92845.16;4994266;28;20181;-71
2021/03/16 04:05:58;;;;;;;1.50;1.40;;;;;;;3.69;70.43;92845.09;4994293;28;20551;-72
2021/03/16 04:08:23;;;;;;;1.47;1.37;;;;;;;3.65;70.88;92850.31;5010303;28;20201;-70
2021/03/16 04:10:49;;;;;;;2.30;1.37;;;;;;;3.79;70.22;92851.66;4978242;28;20189;-69
2021/03/16 04:13:15;;;;;;;2.30;1.60;;;;;;;3.94;69.82;92861.38;5011357;28;20655;-70
2021/03/16 04:15:41;;;;;;;1.00;1.00;;;;;;;3.74;69.47;92852.72;4994259;28;20169;-69
2021/03/16 04:18:06;;;;;;;1.57;1.40;;;;;;;3.69;70.03;92859.03;5010531;28;20176;-70
2021/03/16 04:20:32;;;;;;;1.20;1.10;;;;;;;3.48;69.93;92849.97;5010232;28;20169;-70
2021/03/16 04:22:57;;;;;;;1.00;1.00;;;;;;;3.09;70.44;92848.16;5010536;28;20187;-69
2021/03/16 04:25:22;;;;;;;1.40;1.17;;;;;;;3.62;70.23;92871.34;5011482;28;20170;-69
2021/03/16 04:27:48;;;;;;;1.20;1.10;;;;;;;3.50;70.05;92869.63;5011453;28;20675;-69
2021/03/16 04:30:14;;;;;;;1.27;1.20;;;;;;;3.54;69.85;92870.47;5011209;28;20185;-69
2021/03/16 04:32:39;;;;;;;3.53;1.17;;;;;;;3.28;70.91;92868.47;5011715;28;20177;-69
2021/03/16 04:35:05;;;;;;;1.57;1.47;;;;;;;3.35;70.19;92854.66;5011406;28;20177;-70
2021/03/16 04:37:31;;;;;;;3.97;1.20;;;;;;;3.44;68.98;92874.44;5011436;28;20195;-72
2021/03/16 04:39:56;;;;;;;1.70;1.60;;;;;;;3.86;69.05;92870.25;5003212;28;20189;-69
2021/03/16 04:42:22;;;;;;;1.30;1.27;;;;;;;3.71;69.20;92875.31;5009315;28;20178;-69
2021/03/16 04:44:47;;;;;;;1.33;1.30;;;;;;;3.49;69.16;92851.53;5011254;28;20596;-69
2021/03/16 04:47:13;;;;;;;2.33;1.57;;;;;;;3.52;69.27;92875.31;5011224;28;20204;-69
2021/03/16 04:49:38;;;;;;;1.37;1.30;;;;;;;3.54;69.75;92880.28;5011275;28;20209;-68
2021/03/16 04:52:04;;;;;;;1.37;1.20;;;;;;;3.96;69.07;92874.97;5011004;28;20169;-71
2021/03/16 04:54:30;;;;;;;1.30;1.20;;;;;;;3.87;68.63;92877.06;5011073;28;20297;-70
2021/03/16 04:56:55;;;;;;;1.10;1.07;;;;;;;3.91;68.57;92875.25;5013398;28;20181;-71
2021/03/16 04:59:21;;;;;;;2.83;1.20;;;;;;;3.99;69.15;92876.91;5014903;28;20600;-71
2021/03/16 05:01:46;;;;;;;1.23;1.23;;;;;;;3.96;68.71;92875.72;5014557;28;20580;-70
2021/03/16 05:04:12;;;;;;;1.40;1.33;;;;;;;3.87;68.29;92885.00;5014868;28;20655;-71
2021/03/16 05:06:37;;;;;;;1.33;1.23;;;;;;;3.79;69.35;92894.66;5014944;28;20213;-69
2021/03/16 05:09:03;;;;;;;2.40;1.30;;;;;;;3.48;71.14;92892.19;5014573;28;20721;-69
2021/03/16 05:11:28;;;;;;;1.50;1.40;;;;;;;3.53;71.13;92902.47;5014643;28;20262;-69
2021/03/16 05:13:54;;;;;;;1.47;1.37;;;;;;;3.63;72.41;92902.69;5012543;28;20193;-69
2021/03/16 05:16:21;;;;;;;1.43;1.37;;;;;;;3.33;72.12;92904.38;5014581;28;20223;-69
2021/03/16 05:18:47;;;;;;;2.97;1.60;;;;;;;3.37;72.54;92889.38;5014469;28;20177;-69
2021/03/16 05:21:12;;;;;;;1.33;1.23;;;;;;;3.39;72.84;92911.66;5014728;28;20176;-69
2021/03/16 05:23:38;;;;;;;1.50;1.40;;;;;;;3.49;72.78;92897.16;5014473;28;20173;-69
2021/03/16 05:26:03;;;;;;;1.33;1.23;;;;;;;3.27;73.12;92895.97;5014576;28;20638;-70
2021/03/16 05:28:28;;;;;;;1.37;1.20;;;;;;;3.41;73.53;92900.75;5014102;28;20623;-69
2021/03/16 05:30:54;;;;;;;1.30;1.20;;;;;;;3.35;72.54;92897.63;5014340;28;20169;-69
2021/03/16 05:33:20;;;;;;;1.30;1.20;;;;;;;3.08;74.56;92903.84;5014500;28;20180;-69
2021/03/16 05:35:46;;;;;;;1.57;1.47;;;;;;;3.05;73.98;92901.91;5014026;28;20169;-69
2021/03/16 05:38:11;;;;;;;3.08;1.20;;;;;;;2.90;75.49;92906.13;5014335;28;20177;-69
2021/03/16 05:40:37;;;;;;;2.10;1.43;;;;;;;3.05;75.00;92909.84;5014085;28;20185;-69
2021/03/16 05:43:02;;;;;;;1.17;1.00;;;;;;;3.10;74.24;92909.56;5014186;28;20173;-69
2021/03/16 05:45:28;;;;;;;2.47;1.70;;;;;;;2.75;75.37;92912.97;5013777;28;20652;-70
2021/03/16 05:47:53;;;;;;;1.77;1.67;;;;;;;2.96;75.27;92917.16;5013947;28;20274;-69
2021/03/16 05:50:19;;;;;;;1.97;1.73;;;;;;;2.97;74.95;92934.50;4996583;28;20177;-70
2021/03/16 05:52:45;;;;;;;1.80;1.70;;;;;;;2.87;74.43;92928.66;5013814;28;20287;-70
2021/03/16 05:55:11;;;;;;;1.83;1.70;;;;;;;2.95;75.35;92920.91;5013993;28;20268;-72
2021/03/16 05:57:37;;;;;;;1.93;1.70;;;;;;;2.98;74.26;92928.91;5013731;28;20562;-71
2021/03/16 06:00:05;;;;;;;1.40;1.30;;;;;;;2.75;75.84;92928.00;5013903;28;20181;-71
2021/03/16 06:02:31;;;;;;;1.67;1.58;;;;;;;2.63;75.38;92929.63;5013476;28;20189;-71
2021/03/16 06:04:56;;;;;;;1.93;1.67;;;;;;;3.07;74.97;92926.06;5012613;28;20181;-73
2021/03/16 06:07:22;;;;;;;1.97;1.83;;;;;;;2.72;74.86;92937.38;5013168;28;20253;-71
2021/03/16 06:09:49;;;;;;;1.67;1.57;;;;;;;2.88;75.18;92943.38;5013659;28;20531;-69
2021/03/16 06:12:14;;;;;;;2.28;1.80;;;;;;;2.96;75.28;92939.00;5012258;28;20695;-71
2021/03/16 06:14:40;;;;;;;3.77;1.80;;;;;;;3.07;74.58;92945.28;5012444;28;20231;-69
2021/03/16 06:17:05;;;;;;;1.50;1.40;;;;;;;2.92;74.20;92943.47;5011385;28;20193;-70
2021/03/16 06:19:33;;;;;;;1.80;1.70;;;;;;;3.22;73.61;92951.63;5013696;28;20181;-69
2021/03/16 06:22:02;;;;;;;1.73;1.63;;;;;;;2.94;73.89;92953.66;5013441;28;20177;-69
2021/03/16 06:24:28;;;;;;;2.28;2.08;;;;;;;2.95;74.52;92952.53;5013528;28;20177;-69
2021/03/16 06:26:54;;;;;;;2.03;1.83;;;;;;;3.14;73.76;92952.56;5012286;28;20177;-69
2021/03/16 06:29:19;;;;;;;2.23;1.50;;;;;;;3.12;73.74;92962.72;5013049;28;20275;-70
2021/03/16 06:31:45;;;;;;;4.97;1.77;;;;;;;2.95;73.78;92960.44;5013148;28;20188;-70
2021/03/16 06:34:20;;;;;;;2.00;1.80;;;;;;;3.04;73.29;92963.69;5013237;28;20656;-70
2021/03/16 06:36:48;;;;;;;1.80;1.60;;;;;;;2.94;74.01;92959.69;5011173;28;20246;-69
2021/03/16 06:39:20;;;;;;;1.50;1.40;;;;;;;3.04;73.51;92971.59;5011759;28;20193;-69
2021/03/16 06:41:46;;;;;;;1.95;1.58;;;;;;;2.87;74.45;92976.13;5013054;28;20208;-70
2021/03/16 06:44:15;;;;;;;1.70;1.60;;;;;;;3.27;74.16;92975.09;5012819;28;20263;-69
2021/03/16 06:46:41;;;;;;;1.73;1.52;;;;;;;3.26;74.05;92981.50;5012890;28;20185;-70
2021/03/16 06:49:16;;;;;;;1.73;1.50;;;;;;;2.85;73.97;92973.03;5012679;28;20295;-69
2021/03/16 06:51:42;;;;;;;1.30;1.30;;;;;;;2.94;74.62;92978.16;4995999;28;20177;-70
2021/03/16 06:54:12;;;;;;;1.90;1.80;;;;;;;3.11;72.96;92987.56;4995039;28;21047;-72
2021/03/16 06:56:38;;;;;;;1.65;1.55;;;;;;;2.85;74.51;92996.00;5012924;28;20169;-72
2021/03/16 06:59:06;;;;;;;2.40;1.50;;;;;;;3.10;74.22;92999.22;5012316;28;20670;-72
2021/03/16 07:01:32;;;;;;;2.00;1.73;;;;;;;2.77;73.89;92999.59;5011284;28;20212;-71
2021/03/16 07:03:59;;;;;;;4.45;2.20;;;;;;;2.52;75.10;92996.34;5012508;28;20182;-71
2021/03/16 07:06:25;;;;;;;2.05;1.40;;;;;;;2.49;74.33;92999.69;5011389;28;20753;-71
2021/03/16 07:08:50;;;;;;;2.07;1.83;;;;;;;2.98;74.97;93010.63;5012736;28;20209;-70
2021/03/16 07:11:21;;;;;;;1.93;1.77;;;;;;;2.67;74.69;93000.09;5010525;28;20686;-70
2021/03/16 07:13:46;;;;;;;3.03;1.98;;;;;;;2.91;74.78;93007.81;5012498;28;20541;-72
2021/03/16 07:16:12;;;;;;;2.67;2.30;;;;;;;2.81;73.91;93011.00;5012217;28;20271;-71
2021/03/16 07:18:39;;;;;;;2.43;2.23;;;;;;;2.71;73.55;93011.50;5012566;28;20181;-70
2021/03/16 07:21:06;;;;;;;2.67;2.47;;;;;;;2.92;73.66;93023.31;5011387;28;20169;-70
2021/03/16 07:23:51;;;;;;;2.25;2.05;;;;;;;2.92;73.75;93020.69;5012256;28;20192;-70
2021/03/16 07:26:17;;;;;;;3.33;2.40;;;;;;;2.98;73.57;93017.78;5011061;28;20207;-70
2021/03/16 07:28:46;;;;;;;2.93;2.37;;;;;;;3.01;72.68;93017.09;5012104;28;20239;-70
2021/03/16 07:31:12;;;;;;;2.60;2.40;;;;;;;3.07;73.37;93015.72;5010815;28;20451;-69
2021/03/16 07:33:38;;;;;;;2.38;2.20;;;;;;;3.21;72.47;93025.81;5011103;28;20529;-70
2021/03/16 07:36:03;;;;;;;2.30;2.00;;;;;;;3.26;72.25;93021.06;5011804;28;20235;-69
2021/03/16 07:38:29;;;;;;;2.60;2.40;;;;;;;2.96;72.92;93041.06;5012008;28;20247;-71
2021/03/16 07:40:54;;;;;;;3.47;2.60;;;;;;;2.73;73.29;93031.13;5010689;28;20173;-72
2021/03/16 07:43:38;;;;;;;2.87;2.60;;;;;;;2.83;72.72;93033.25;5010729;28;20181;-70
2021/03/16 07:46:13;;;;;;;3.35;3.00;;;;;;;2.80;73.51;93046.34;5011768;28;20180;-71
2021/03/16 07:48:51;;;;;;;4.03;3.17;;;;;;;3.03;73.97;93034.09;5012045;28;20203;-70
2021/03/16 07:51:19;;;;;;;2.83;2.58;;;;;;;3.04;72.78;93037.50;5010404;28;20184;-69
2021/03/16 07:53:55;;;;;;;4.22;2.88;;;;;;;3.21;72.60;93047.69;5010085;28;20231;-69
2021/03/16 07:56:28;;;;;;;3.25;2.95;;;;;;;3.02;72.34;93052.88;5010529;28;20646;-70
2021/03/16 07:58:54;;;;;;;4.13;3.53;;;;;;;3.12;73.40;93052.38;5011959;28;20211;-70
2021/03/16 08:01:20;;;;;;;4.07;3.13;;;;;;;3.15;71.95;93047.19;5010098;28;20261;-71
2021/03/16 08:03:45;;;;;;;4.13;3.40;;;;;;;3.21;72.90;93046.94;5010677;28;20937;-71
2021/03/16 08:06:24;;;;;;;3.83;3.13;;;;;;;3.06;72.24;93054.50;5011419;28;20176;-71
2021/03/16 08:08:49;;;;;;;4.47;3.80;;;;;;;3.24;72.54;93062.81;5011693;28;20220;-71
2021/03/16 08:11:15;;;;;;;4.17;3.23;;;;;;;3.39;72.35;93051.47;5006785;28;20623;-70
2021/03/16 08:13:40;;;;;;;4.03;3.40;;;;;;;2.96;71.73;93054.25;5011389;28;20188;-71
2021/03/16 08:16:13;;;;;;;6.03;3.70;;;;;;;2.98;72.99;93068.63;4993745;28;20229;-66
2021/03/16 08:18:38;;;;;;;3.70;3.35;;;;;;;2.98;73.30;93060.72;5011463;28;20185;-73
2021/03/16 08:21:13;;;;;;;4.17;3.70;;;;;;;3.20;72.06;93056.72;5009654;28;20169;-72
2021/03/16 08:23:39;;;;;;;3.58;3.08;;;;;;;3.12;73.24;93063.69;5011239;28;20639;-72
2021/03/16 08:26:05;;;;;;;4.33;3.07;;;;;;;2.85;72.34;93062.66;5011301;28;20176;-72
2021/03/16 08:28:32;;;;;;;5.22;3.50;;;;;;;2.84;73.97;93061.16;5011406;28;20404;-71
2021/03/16 08:30:58;;;;;;;4.22;3.60;;;;;;;2.92;73.49;93070.00;5011931;28;20256;-71
2021/03/16 08:33:23;;;;;;;4.27;3.60;;;;;;;3.00;73.46;93055.09;5015522;28;20252;-71
2021/03/16 08:35:50;;;;;;;3.73;3.33;;;;;;;2.71;73.80;93058.94;5015635;28;20176;-72
2021/03/16 08:38:28;;;;;;;3.53;3.17;;;;;;;3.06;73.54;93067.69;5015297;28;20192;-71
2021/03/16 08:41:06;;;;;;;4.65;3.53;;;;;;;3.23;72.50;93056.00;5015034;28;20184;-72
2021/03/16 08:43:32;;;;;;;4.20;3.80;;;;;;;3.32;72.17;93069.03;5015097;28;20272;-72
2021/03/16 08:45:57;;;;;;;4.13;3.43;;;;;;;3.34;72.18;93070.22;5014554;28;20173;-72
2021/03/16 08:48:27;;;;;;;3.73;3.33;;;;;;;3.35;71.69;93058.53;5014794;28;20205;-72
2021/03/16 08:50:52;;;;;;;4.20;3.63;;;;;;;2.78;71.07;93046.69;5029640;28;20189;-73
2021/03/16 08:53:18;;;;;;;3.97;3.60;;;;;;;3.33;71.85;93070.56;5014390;28;20239;-71
2021/03/16 08:55:47;;;;;;;4.90;3.70;;;;;;;3.36;71.24;93062.69;5014918;28;20184;-71
2021/03/16 08:58:13;;;;;;;4.38;3.47;;;;;;;3.07;72.63;93069.22;5014808;28;20625;-72
2021/03/16 09:00:39;;;;;;;4.33;3.43;;;;;;;2.93;72.88;93076.81;5013517;28;20204;-73
2021/03/16 09:03:04;;;;;;;3.47;3.17;;;;;;;2.80;72.79;93094.56;5014287;28;20229;-71
2021/03/16 09:05:30;;;;;;;5.73;4.10;;;;;;;3.01;73.65;93075.84;5014605;28;20172;-72
2021/03/16 09:07:59;;;;;;;4.13;3.70;;;;;;;2.54;73.00;93063.44;5014432;28;20671;-70
2021/03/16 09:10:24;;;;;;;4.13;3.13;;;;;;;2.96;73.54;93083.25;5014589;28;20178;-71
2021/03/16 09:12:51;;;;;;;5.93;3.80;;;;;;;3.13;71.86;93070.47;5014190;28;20550;-72
2021/03/16 09:15:34;;;;;;;7.18;3.60;;;;;;;3.12;70.83;93071.59;5014424;28;20656;-72
2021/03/16 09:18:01;;;;;;;6.72;3.70;;;;;;;3.30;71.33;93079.91;5014174;28;20623;-73
2021/03/16 09:20:31;;;;;;;4.78;3.80;;;;;;;3.07;71.06;93082.41;5014531;28;20169;-72
2021/03/16 09:22:59;;;;;;;3.95;3.50;;;;;;;3.16;70.68;93071.69;5014014;28;20177;-72
2021/03/16 09:25:29;;;;;;;3.88;3.47;;;;;;;3.19;70.92;93063.84;5014301;28;20248;-72
2021/03/16 09:28:00;;;;;;;6.60;4.38;;;;;;;3.33;70.86;93079.22;5013900;28;20208;-72
2021/03/16 09:30:31;;;;;;;4.22;3.83;;;;;;;3.18;70.82;93080.78;5013975;28;20545;-72
2021/03/16 09:32:56;;;;;;;5.05;3.72;;;;;;;3.35;70.83;93076.25;5012919;28;20183;-73
2021/03/16 09:35:22;;;;;;;6.43;3.97;;;;;;;3.43;69.37;93080.59;5012741;28;20588;-72
2021/03/16 09:37:49;;;;;;;4.13;3.73;;;;;;;3.41;69.79;93075.63;5029220;28;20165;-70
2021/03/16 09:40:15;;;;;;;4.55;3.78;;;;;;;3.53;70.01;93081.91;5013970;28;20197;-71
2021/03/16 09:42:46;;;;;;;5.88;3.60;;;;;;;3.40;69.62;93075.97;5011650;28;20189;-73
2021/03/16 09:45:17;;;;;;;4.55;3.40;;;;;;;3.56;69.59;93091.78;5012467;28;20173;-74
2021/03/16 09:47:43;;;;;;;3.88;2.97;;;;;;;3.61;69.74;93088.88;5013974;28;20169;-71
2021/03/16 09:50:19;;;;;;;5.53;4.03;;;;;;;3.05;69.46;93070.69;5013503;28;20606;-71
2021/03/16 09:52:46;;;;;;;4.20;3.45;;;;;;;3.21;70.12;93092.53;5013465;28;20221;-72
2021/03/16 09:55:11;;;;;;;4.30;3.35;;;;;;;3.50;69.72;93090.53;4995287;28;20193;-72
2021/03/16 09:57:37;;;;;;;3.73;3.30;;;;;;;3.35;71.20;93092.84;5013537;28;20710;-72
2021/03/16 10:00:09;;;;;;;3.88;3.47;;;;;;;3.56;69.90;93097.06;5012116;28;20636;-73
2021/03/16 10:02:37;;;;;;;3.60;3.30;;;;;;;3.66;70.23;93107.88;5013577;28;20720;-71
2021/03/16 10:05:10;;;;;;;3.95;3.55;;;;;;;3.80;70.82;93107.38;5013107;28;20196;-71
2021/03/16 10:07:36;;;;;;;3.88;3.40;;;;;;;3.54;70.15;93094.03;5012197;28;20185;-72
2021/03/16 10:10:08;;;;;;;3.93;3.47;;;;;;;3.46;68.96;93101.00;5013359;28;20173;-72
2021/03/16 10:12:34;;;;;;;4.22;3.45;;;;;;;3.55;69.67;93103.47;5011901;28;20197;-72
2021/03/16 10:14:59;;;;;;;4.50;3.33;;;;;;;3.43;71.65;93126.22;5011438;28;20184;-71
2021/03/16 10:17:29;;;;;;;5.87;4.10;;;;;;;3.38;71.74;93117.78;5013351;28;20247;-72
2021/03/16 10:19:59;;;;;;;3.80;3.40;;;;;;;3.50;71.40;93122.97;5011067;28;20200;-72
2021/03/16 10:22:32;;;;;;;5.03;3.55;;;;;;;3.24;70.89;93114.81;5013144;28;20642;-73
2021/03/16 10:25:07;;;;;;;5.07;3.58;;;;;;;3.35;71.46;93121.09;5012773;28;20177;-73
2021/03/16 10:27:33;;;;;;;4.68;3.63;;;;;;;3.61;71.26;93137.16;5012746;28;20169;-71
2021/03/16 10:30:11;;;;;;;4.47;3.53;;;;;;;3.13;71.37;93125.09;5013003;28;20185;-72
2021/03/16 10:32:39;;;;;;;4.90;3.75;;;;;;;3.25;71.35;93127.66;5013336;28;20549;-73
2021/03/16 10:35:06;;;;;;;4.20;3.80;;;;;;;3.26;72.42;93126.56;5012705;28;20185;-72
2021/03/16 10:37:31;;;;;;;6.07;4.13;;;;;;;3.47;73.13;93123.63;5012785;28;20189;-73
2021/03/16 10:39:59;;;;;;;4.27;3.77;;;;;;;3.68;71.22;93131.28;5012708;28;20173;-72
2021/03/16 10:42:25;;;;;;;4.63;3.72;;;;;;;3.31;72.41;93133.44;5012931;28;20161;-71
2021/03/16 10:44:51;;;;;;;5.03;4.10;;;;;;;3.42;72.39;93124.69;5011443;28;20651;-73
2021/03/16 10:47:16;;;;;;;6.17;4.30;;;;;;;3.33;72.26;93126.72;4994303;28;20200;-73
2021/03/16 10:49:42;;;;;;;4.10;3.70;;;;;;;3.24;72.12;93112.94;5012638;28;20709;-72
2021/03/16 10:52:07;;;;;;;7.50;4.37;;;;;;;3.42;72.76;93118.63;5012251;28;20177;-71
2021/03/16 10:54:35;;;;;;;6.40;4.27;;;;;;;2.99;73.99;93130.03;5012313;28;20679;-70
2021/03/16 10:57:00;;;;;;;4.95;3.45;;;;;;;3.29;73.35;93135.66;5012356;28;20264;-70
2021/03/16 10:59:26;;;;;;;4.17;3.77;;;;;;;3.21;72.94;93118.91;5012515;28;20256;-71
2021/03/16 11:01:52;;;;;;;6.67;3.70;;;;;;;2.97;72.30;93137.50;5012226;28;20180;-71
2021/03/16 11:04:18;;;;;;;5.77;4.23;;;;;;;2.84;74.89;93126.28;5012209;28;20175;-70
2021/03/16 11:06:45;;;;;;;7.25;4.03;;;;;;;2.80;74.44;93120.91;5010320;28;20189;-71
2021/03/16 11:09:11;;;;;;;6.20;4.45;;;;;;;2.95;74.78;93135.22;5012088;28;20208;-71
2021/03/16 11:11:37;;;;;;;5.45;4.53;;;;;;;3.23;73.98;93124.59;5010393;28;20213;-70
2021/03/16 11:14:02;;;;;;;6.63;4.83;;;;;;;3.23;73.31;93123.81;5012149;28;20665;-71
2021/03/16 11:16:28;;;;;;;7.13;4.27;;;;;;;3.07;74.46;93142.28;5012068;28;20169;-71
2021/03/16 11:18:53;;;;;;;7.80;4.20;;;;;;;3.13;74.08;93133.00;5011788;28;20177;-71
2021/03/16 11:21:19;;;;;;;4.90;3.80;;;;;;;3.05;74.46;93136.59;5012022;28;20177;-69
2021/03/16 11:23:44;;;;;;;5.40;4.10;;;;;;;2.84;74.85;93132.31;5011558;28;20212;-70
2021/03/16 11:26:10;;;;;;;5.70;4.23;;;;;;;3.03;74.82;93129.03;5012049;28;20168;-70
2021/03/16 11:28:35;;;;;;;4.80;4.23;;;;;;;2.69;75.33;93134.91;5011670;28;20201;-72
2021/03/16 11:31:02;;;;;;;5.23;4.73;;;;;;;2.63;76.89;93135.16;5011875;28;20680;-71
2021/03/16 11:33:27;;;;;;;5.75;4.93;;;;;;;2.65;76.55;93125.06;5011709;28;20157;-71
2021/03/16 11:35:53;;;;;;;5.20;4.53;;;;;;;2.70;76.53;93134.59;5011968;28;20231;-72
2021/03/16 11:38:18;;;;;;;7.83;4.90;;;;;;;2.52;76.65;93130.72;5011501;28;20651;-72
2021/03/16 11:40:44;;;;;;;6.53;4.63;;;;;;;2.59;76.77;93131.69;5011616;28;20177;-73